Time;durP1;ratioP1;P1;durP2;ratioP2;P2;SDS_P1;SDS_P2;PMS_P1;PMS_P2;Temp;Humidity;BMP_temperature;BMP_pressure;BME280_temperature;BME280_humidity;BME280_pressure;Samples;Min_cycle;Max_cycle;Signal;HPM_P1;HPM_P2
2022/07/04 00:02:05;;;;;;;2.67;1.70;;;;;;;20.01;100.00;99249.97;5032625;28;20193;-78
2022/07/04 00:04:34;;;;;;;3.70;1.60;;;;;;;20.02;100.00;99248.97;5034116;28;20201;-78
2022/07/04 00:07:02;;;;;;;3.40;1.90;;;;;;;20.13;100.00;99252.41;5032540;28;20229;-79
2022/07/04 00:09:32;;;;;;;4.87;2.00;;;;;;;20.23;100.00;99245.09;5031540;28;20205;-78
2022/07/04 00:12:00;;;;;;;2.17;1.77;;;;;;;20.37;100.00;99252.59;5036464;28;20395;-78
2022/07/04 00:14:28;;;;;;;3.10;1.80;;;;;;;20.19;100.00;99249.09;5032560;28;20198;-79
2022/07/04 00:16:56;;;;;;;3.80;1.80;;;;;;;20.24;100.00;99249.47;5032304;28;20280;-79
2022/07/04 00:19:26;;;;;;;3.37;1.57;;;;;;;20.15;100.00;99253.09;5029755;28;20209;-78
2022/07/04 00:21:54;;;;;;;6.67;1.83;;;;;;;20.19;100.00;99258.03;5038835;27;20205;-78
2022/07/04 00:24:23;;;;;;;2.97;1.97;;;;;;;20.17;100.00;99256.47;5029835;28;20198;-78
2022/07/04 00:26:52;;;;;;;3.70;1.80;;;;;;;20.22;100.00;99263.06;5032091;28;20272;-78
2022/07/04 00:29:21;;;;;;;3.53;1.70;;;;;;;20.25;100.00;99269.97;5027140;28;20229;-78
2022/07/04 00:31:51;;;;;;;1.87;1.50;;;;;;;20.01;100.00;99259.88;5029355;28;20202;-78
2022/07/04 00:34:19;;;;;;;2.57;1.70;;;;;;;20.17;100.00;99262.72;5027572;28;20208;-79
2022/07/04 00:36:47;;;;;;;2.80;1.73;;;;;;;19.92;100.00;99264.34;5027474;28;20201;-78
2022/07/04 00:39:15;;;;;;;2.83;1.40;;;;;;;19.79;100.00;99260.38;5033825;28;20276;-78
2022/07/04 00:41:44;;;;;;;3.23;1.67;;;;;;;19.69;100.00;99258.63;5031592;28;20204;-78
2022/07/04 00:44:15;;;;;;;2.13;1.60;;;;;;;19.62;100.00;99256.69;5026592;28;20671;-78
2022/07/04 00:46:45;;;;;;;3.13;1.70;;;;;;;19.64;100.00;99268.13;5029257;28;20225;-79
2022/07/04 00:49:15;;;;;;;4.03;1.90;;;;;;;19.43;100.00;99260.31;5030893;28;20245;-78
2022/07/04 00:51:44;;;;;;;2.70;1.80;;;;;;;19.48;100.00;99260.69;5044810;27;20198;-78
2022/07/04 00:54:15;;;;;;;3.60;1.63;;;;;;;19.52;100.00;99261.25;5024859;28;20656;-78
2022/07/04 00:56:45;;;;;;;3.43;1.70;;;;;;;19.59;100.00;99270.41;5030812;28;20209;-79
2022/07/04 00:59:15;;;;;;;3.50;1.77;;;;;;;19.40;100.00;99258.81;5030986;28;20233;-78
2022/07/04 01:01:43;;;;;;;3.53;1.90;;;;;;;19.42;100.00;99262.16;5028047;28;20194;-79
2022/07/04 01:04:12;;;;;;;3.77;1.60;;;;;;;19.34;100.00;99262.09;5030763;28;20197;-79
2022/07/04 01:06:40;;;;;;;2.73;1.70;;;;;;;19.38;100.00;99268.81;5025707;28;20286;-79
2022/07/04 01:09:08;;;;;;;4.63;1.80;;;;;;;19.31;100.00;99270.44;5029462;28;20213;-79
2022/07/04 01:11:37;;;;;;;2.60;1.90;;;;;;;19.38;100.00;99265.28;5028559;28;20269;-78
2022/07/04 01:14:06;;;;;;;2.60;1.73;;;;;;;19.34;100.00;99263.94;5035314;28;20219;-78
2022/07/04 01:16:36;;;;;;;3.40;1.83;;;;;;;19.15;100.00;99265.72;5030608;28;20237;-79
2022/07/04 01:19:04;;;;;;;2.40;1.70;;;;;;;19.34;100.00;99272.81;5036728;28;20258;-79
2022/07/04 01:21:34;;;;;;;3.30;1.80;;;;;;;19.29;100.00;99261.69;5026616;28;20204;-78
2022/07/04 01:24:02;;;;;;;3.17;2.13;;;;;;;19.24;100.00;99268.50;5025336;28;20208;-79
2022/07/04 01:26:31;;;;;;;2.43;1.87;;;;;;;19.13;100.00;99269.56;5027483;28;20364;-78
2022/07/04 01:28:59;;;;;;;4.43;1.97;;;;;;;19.01;100.00;99271.63;5027965;28;20269;-79
2022/07/04 01:31:27;;;;;;;3.70;1.90;;;;;;;19.08;100.00;99270.00;5030014;28;20258;-79
2022/07/04 01:33:56;;;;;;;3.13;2.03;;;;;;;19.09;100.00;99270.84;5030134;28;20190;-78
2022/07/04 01:36:24;;;;;;;2.73;2.00;;;;;;;19.03;100.00;99275.00;5025510;28;20198;-79
2022/07/04 01:38:56;;;;;;;3.17;1.90;;;;;;;18.95;100.00;99277.56;5028690;28;20202;-79
2022/07/04 01:41:24;;;;;;;2.30;1.90;;;;;;;18.98;100.00;99274.56;5030361;28;20197;-78
2022/07/04 01:43:53;;;;;;;2.80;2.10;;;;;;;18.85;100.00;99284.81;5022263;28;20240;-79
2022/07/04 01:46:22;;;;;;;3.80;1.97;;;;;;;18.80;100.00;99273.66;5030102;28;20643;-78
2022/07/04 01:48:50;;;;;;;3.33;2.23;;;;;;;18.66;100.00;99280.38;4988114;28;1213396;-78
2022/07/04 01:51:18;;;;;;;4.03;1.83;;;;;;;18.71;100.00;99282.59;5028327;28;20200;-78
2022/07/04 01:53:47;;;;;;;3.87;1.70;;;;;;;18.62;100.00;99283.44;5028574;28;20225;-79
2022/07/04 01:56:17;;;;;;;3.43;2.20;;;;;;;18.47;100.00;99294.66;5031039;28;20220;-78
2022/07/04 01:58:45;;;;;;;3.00;2.47;;;;;;;18.43;100.00;99292.38;5038003;27;20209;-78
2022/07/04 02:01:31;;;;;;;5.93;2.07;;;;;;;18.41;100.00;99295.22;5030764;28;20202;-78
2022/07/04 02:04:01;;;;;;;2.90;2.10;;;;;;;18.42;100.00;99298.75;5028045;28;20205;-79
2022/07/04 02:06:29;;;;;;;3.70;2.10;;;;;;;18.34;100.00;99309.38;5030494;28;20214;-78
2022/07/04 02:09:16;;;;;;;3.67;2.27;;;;;;;18.37;100.00;99301.03;5029702;28;20204;-79
2022/07/04 02:14:34;;;;;;;2.70;1.93;;;;;;;18.57;100.00;99300.84;5030676;28;20202;-78
2022/07/04 02:17:03;;;;;;;3.73;2.10;;;;;;;18.52;100.00;99312.97;5029803;28;20217;-78
2022/07/04 02:19:32;;;;;;;3.97;2.00;;;;;;;18.39;100.00;99309.78;5024278;28;20225;-79
2022/07/04 02:22:00;;;;;;;2.63;1.80;;;;;;;18.49;100.00;99313.28;5027102;28;20208;-79
2022/07/04 02:24:28;;;;;;;2.57;1.77;;;;;;;18.55;100.00;99310.03;5027347;28;20194;-78
2022/07/04 02:26:58;;;;;;;3.23;2.23;;;;;;;18.37;100.00;99311.75;5032652;28;20221;-78
2022/07/04 02:29:26;;;;;;;4.17;1.90;;;;;;;18.63;100.00;99317.34;5030516;28;20197;-79
2022/07/04 02:31:55;;;;;;;2.67;2.00;;;;;;;18.56;100.00;99314.41;5032082;28;20197;-79
2022/07/04 02:34:23;;;;;;;2.67;1.87;;;;;;;18.62;100.00;99321.84;5027504;28;20198;-78
2022/07/04 02:36:51;;;;;;;4.70;1.97;;;;;;;18.52;100.00;99326.38;5030382;28;20201;-79
2022/07/04 02:39:20;;;;;;;4.67;2.10;;;;;;;18.45;100.00;99325.31;5035179;27;20202;-79
2022/07/04 02:41:48;;;;;;;2.77;2.00;;;;;;;18.37;100.00;99325.16;5033355;28;20208;-78
2022/07/04 02:44:25;;;;;;;2.97;2.07;;;;;;;18.28;100.00;99330.41;5030273;28;20201;-79
2022/07/04 02:46:54;;;;;;;2.50;1.90;;;;;;;18.13;100.00;99322.91;5029631;28;20220;-78
2022/07/04 02:49:22;;;;;;;3.30;1.80;;;;;;;18.19;100.00;99327.72;5034552;27;20221;-78
2022/07/04 02:51:50;;;;;;;3.37;2.10;;;;;;;18.14;100.00;99332.66;5029883;28;20273;-78
2022/07/04 02:54:18;;;;;;;2.70;2.23;;;;;;;18.09;100.00;99337.63;5031434;28;20190;-78
2022/07/04 02:56:46;;;;;;;3.27;1.80;;;;;;;17.99;100.00;99338.44;5028092;28;20337;-78
2022/07/04 02:59:15;;;;;;;4.10;2.03;;;;;;;17.85;100.00;99332.66;5029666;28;20217;-78
2022/07/04 03:01:44;;;;;;;2.77;1.90;;;;;;;17.88;100.00;99335.91;5029922;28;20190;-79
2022/07/04 03:04:14;;;;;;;3.97;2.30;;;;;;;17.79;100.00;99339.44;5028107;28;20194;-78
2022/07/04 03:06:43;;;;;;;4.57;2.10;;;;;;;17.78;100.00;99334.22;5028024;28;20288;-79
2022/07/04 03:09:11;;;;;;;3.53;2.27;;;;;;;17.69;100.00;99349.25;5028604;28;20220;-78
2022/07/04 03:11:40;;;;;;;2.83;2.03;;;;;;;17.64;100.00;99354.16;5036420;27;20194;-79
2022/07/04 03:14:08;;;;;;;4.03;1.83;;;;;;;17.56;100.00;99343.28;5029709;28;20212;-79
2022/07/04 03:16:37;;;;;;;6.43;2.10;;;;;;;17.40;100.00;99346.53;5029537;28;20197;-79
2022/07/04 03:19:06;;;;;;;2.80;2.30;;;;;;;17.31;100.00;99342.81;5032086;28;20277;-78
2022/07/04 03:21:35;;;;;;;2.93;2.20;;;;;;;17.48;100.00;99346.69;5029442;28;20206;-78
2022/07/04 03:24:03;;;;;;;3.37;2.33;;;;;;;17.47;100.00;99347.69;5028286;28;20204;-78
2022/07/04 03:26:33;;;;;;;5.40;2.40;;;;;;;17.31;100.00;99358.03;5033973;28;20210;-79
2022/07/04 03:29:02;;;;;;;4.93;2.50;;;;;;;17.19;100.00;99357.31;5029678;28;20217;-79
2022/07/04 03:31:31;;;;;;;2.60;2.30;;;;;;;17.33;100.00;99364.09;5029629;28;20222;-79
2022/07/04 03:33:59;;;;;;;2.47;2.27;;;;;;;17.21;100.00;99351.81;5028532;28;20194;-79
2022/07/04 03:36:31;;;;;;;4.23;2.03;;;;;;;17.32;100.00;99347.19;5029576;28;20210;-79
2022/07/04 03:38:59;;;;;;;2.47;2.20;;;;;;;17.20;100.00;99358.16;5031938;28;20197;-78
2022/07/04 03:41:27;;;;;;;5.10;2.53;;;;;;;17.26;100.00;99363.78;5028183;28;20198;-78
2022/07/04 03:43:56;;;;;;;4.07;2.30;;;;;;;17.20;100.00;99364.34;5036179;28;20280;-79
2022/07/04 03:46:24;;;;;;;4.10;2.70;;;;;;;17.17;100.00;99364.59;5029508;28;20193;-79
2022/07/04 03:48:54;;;;;;;3.13;2.40;;;;;;;17.21;100.00;99366.03;5028022;28;20262;-79
2022/07/04 03:51:23;;;;;;;4.53;2.50;;;;;;;17.29;100.00;99368.91;5065927;28;20200;-78
2022/07/04 03:53:53;;;;;;;2.30;2.10;;;;;;;17.25;100.00;99375.50;5064435;28;20189;-79
2022/07/04 03:56:21;;;;;;;4.17;2.47;;;;;;;17.22;100.00;99369.56;5069888;28;20199;-78
2022/07/04 03:58:49;;;;;;;3.70;2.53;;;;;;;17.34;100.00;99373.84;5070193;28;20201;-79
2022/07/04 04:01:18;;;;;;;5.20;2.80;;;;;;;17.21;100.00;99374.06;5064689;28;20196;-78
2022/07/04 04:06:32;;;;;;;3.40;2.30;;;;;;;17.41;100.00;99373.16;5070000;28;20203;-78
2022/07/04 04:09:02;;;;;;;4.17;2.30;;;;;;;17.08;100.00;99377.00;5060890;28;20231;-79
2022/07/04 04:11:37;;;;;;;2.77;2.23;;;;;;;17.29;100.00;99379.59;5070139;28;20202;-78
2022/07/04 04:14:07;;;;;;;3.03;2.20;;;;;;;17.40;100.00;99371.47;5064751;28;20201;-78
2022/07/04 04:16:35;;;;;;;4.23;2.30;;;;;;;17.36;100.00;99366.50;5037848;28;20210;-78
2022/07/04 04:19:03;;;;;;;4.03;2.07;;;;;;;17.37;100.00;99378.91;5033790;28;20206;-78
2022/07/04 04:21:31;;;;;;;3.77;2.37;;;;;;;17.28;100.00;99380.59;5021478;28;20202;-78
2022/07/04 04:23:59;;;;;;;4.70;2.90;;;;;;;17.27;100.00;99376.19;5024155;28;20201;-79
2022/07/04 04:26:30;;;;;;;4.57;2.90;;;;;;;17.34;100.00;99387.22;5028414;28;20668;-79
2022/07/04 04:28:58;;;;;;;8.70;2.70;;;;;;;17.46;100.00;99384.28;5029061;28;20218;-79
2022/07/04 04:31:26;;;;;;;3.13;2.73;;;;;;;17.39;100.00;99380.50;5028912;28;20202;-78
2022/07/04 04:33:55;;;;;;;3.40;2.60;;;;;;;17.52;100.00;99380.22;5029141;28;20294;-79
2022/07/04 04:36:23;;;;;;;3.30;2.50;;;;;;;17.53;100.00;99370.38;5035072;28;20510;-79
2022/07/04 04:38:51;;;;;;;4.50;2.60;;;;;;;17.37;100.00;99393.16;5026516;28;20201;-80
2022/07/04 04:41:19;;;;;;;4.87;2.90;;;;;;;17.50;100.00;99384.03;5029991;28;20198;-79
2022/07/04 04:43:50;;;;;;;3.73;2.57;;;;;;;17.62;100.00;99389.13;5027452;28;20201;-79
2022/07/04 04:46:20;;;;;;;2.90;2.17;;;;;;;17.54;100.00;99391.66;5028933;28;20208;-79
2022/07/04 04:48:48;;;;;;;5.47;2.37;;;;;;;17.56;100.00;99400.41;5031789;28;20240;-79
2022/07/04 04:51:17;;;;;;;5.13;2.40;;;;;;;17.57;100.00;99395.91;5028202;28;20190;-78
2022/07/04 04:53:45;;;;;;;5.70;2.30;;;;;;;17.50;100.00;99409.00;5025757;28;20204;-78
2022/07/04 04:56:13;;;;;;;2.40;2.10;;;;;;;17.51;100.00;99409.84;5031899;28;20216;-78
2022/07/04 04:58:41;;;;;;;2.57;2.10;;;;;;;17.52;100.00;99414.22;5030818;28;20205;-79
2022/07/04 05:01:11;;;;;;;4.57;2.63;;;;;;;17.63;100.00;99406.06;5012085;28;20283;-79
2022/07/04 05:04:00;;;;;;;3.13;2.40;;;;;;;17.71;100.00;99408.94;5031568;28;20209;-79
2022/07/04 05:06:29;;;;;;;4.87;2.50;;;;;;;17.72;100.00;99406.13;5035496;28;20210;-79
2022/07/04 05:08:57;;;;;;;3.60;2.10;;;;;;;17.69;100.00;99410.88;5030325;28;20214;-78
2022/07/04 05:11:25;;;;;;;2.73;2.00;;;;;;;17.80;100.00;99415.31;5027014;28;20190;-78
2022/07/04 05:13:53;;;;;;;2.63;2.10;;;;;;;17.74;100.00;99417.53;5031447;28;20198;-78
2022/07/04 05:16:23;;;;;;;3.60;2.40;;;;;;;17.90;100.00;99418.84;5024455;28;20225;-79
2022/07/04 05:18:51;;;;;;;3.23;2.20;;;;;;;17.93;100.00;99414.06;5031215;28;20224;-78
2022/07/04 05:21:20;;;;;;;2.77;1.83;;;;;;;17.91;100.00;99416.03;5031088;28;20201;-78
2022/07/04 05:23:48;;;;;;;2.67;1.87;;;;;;;17.93;100.00;99421.25;5030193;28;20190;-78
2022/07/04 05:26:16;;;;;;;4.37;2.03;;;;;;;17.92;100.00;99416.88;5028614;28;20190;-78
2022/07/04 05:28:46;;;;;;;4.37;1.90;;;;;;;17.86;100.00;99420.97;5027668;28;20301;-78
2022/07/04 05:31:15;;;;;;;3.17;1.83;;;;;;;17.92;100.00;99422.25;5036280;28;20201;-78
2022/07/04 05:33:45;;;;;;;3.00;2.17;;;;;;;17.93;100.00;99424.78;5034998;28;20664;-79
2022/07/04 05:36:13;;;;;;;3.93;1.87;;;;;;;17.98;100.00;99419.84;5029425;28;20209;-81
2022/07/04 05:38:41;;;;;;;4.43;1.77;;;;;;;17.94;100.00;99429.16;5030124;28;20228;-78
2022/07/04 05:41:11;;;;;;;3.97;2.23;;;;;;;18.13;100.00;99430.16;5030802;28;20210;-79
2022/07/04 05:43:39;;;;;;;3.07;1.90;;;;;;;18.14;100.00;99429.19;5031322;28;20192;-78
2022/07/04 05:46:07;;;;;;;4.40;2.10;;;;;;;18.30;100.00;99432.16;5031061;28;20193;-79
2022/07/04 05:48:35;;;;;;;3.67;2.10;;;;;;;18.49;100.00;99434.00;5030815;28;20369;-79
2022/07/04 05:51:05;;;;;;;3.13;2.00;;;;;;;18.58;100.00;99433.16;5030713;28;20201;-78
2022/07/04 05:53:34;;;;;;;4.50;1.90;;;;;;;18.66;100.00;99429.78;5031444;28;20265;-78
2022/07/04 05:56:03;;;;;;;5.57;1.87;;;;;;;18.59;100.00;99426.78;5035157;27;20201;-79
2022/07/04 05:58:31;;;;;;;3.60;2.10;;;;;;;18.56;100.00;99435.97;5026102;28;20194;-79
2022/07/04 06:00:59;;;;;;;3.17;2.00;;;;;;;18.77;100.00;99432.31;5030793;28;20209;-79
2022/07/04 06:03:28;;;;;;;3.50;1.83;;;;;;;18.61;100.00;99432.84;5024881;28;20297;-79
2022/07/04 06:05:57;;;;;;;3.10;1.40;;;;;;;18.81;100.00;99425.66;5084089;28;20252;-79
2022/07/04 06:08:27;;;;;;;3.77;1.37;;;;;;;19.01;100.00;99439.88;5090403;28;20242;-79
2022/07/04 06:10:55;;;;;;;5.60;1.50;;;;;;;19.06;100.00;99437.63;5091795;28;20199;-79
2022/07/04 06:13:24;;;;;;;3.63;1.33;;;;;;;19.07;100.00;99439.31;5088879;28;20195;-79
2022/07/04 06:15:52;;;;;;;3.03;1.20;;;;;;;19.13;100.00;99434.22;5090311;28;20204;-79
2022/07/04 06:18:20;;;;;;;2.40;1.30;;;;;;;19.12;100.00;99426.31;5085276;28;20210;-79
2022/07/04 06:20:48;;;;;;;2.80;1.40;;;;;;;18.96;100.00;99424.22;5091468;28;20188;-79
2022/07/04 06:23:17;;;;;;;4.33;1.30;;;;;;;19.16;100.00;99422.31;5077543;28;20209;-79
2022/07/04 06:25:47;;;;;;;2.77;1.43;;;;;;;19.02;100.00;99429.03;5030467;28;20227;-79
2022/07/04 06:28:17;;;;;;;3.03;1.27;;;;;;;18.97;100.00;99425.91;5035160;27;20198;-79
2022/07/04 06:31:06;;;;;;;3.30;1.40;;;;;;;19.01;100.00;99435.38;5030672;28;20251;-79
2022/07/04 06:35:44;;;;;;;3.43;1.47;;;;;;;19.16;100.00;99425.84;5028167;28;20208;-79
2022/07/04 06:36:21;;;;;;;3.93;1.10;;;;;;;19.19;100.00;99431.94;5030322;28;20202;-78
2022/07/04 06:38:51;;;;;;;4.43;1.40;;;;;;;19.13;100.00;99433.38;5026696;28;20700;-79
2022/07/04 06:41:20;;;;;;;2.73;1.40;;;;;;;19.22;100.00;99423.59;5028045;28;20309;-79
2022/07/04 06:43:48;;;;;;;2.93;1.20;;;;;;;19.29;100.00;99432.72;5029184;28;20235;-79
2022/07/04 06:46:16;;;;;;;1.20;1.00;;;;;;;19.42;100.00;99426.06;5034897;27;20194;-80
2022/07/04 06:48:45;;;;;;;2.23;1.00;;;;;;;19.32;100.00;99413.66;5030102;28;20257;-79
2022/07/04 06:51:13;;;;;;;1.73;1.03;;;;;;;19.15;100.00;99424.16;5029959;28;20219;-79
2022/07/04 06:53:42;;;;;;;3.10;1.03;;;;;;;19.15;100.00;99426.84;5028869;28;20282;-79
2022/07/04 06:56:10;;;;;;;3.40;1.27;;;;;;;19.51;100.00;99416.25;5029823;28;20205;-79
2022/07/04 06:58:40;;;;;;;1.77;1.00;;;;;;;19.79;100.00;99418.97;5025904;28;20202;-79
2022/07/04 07:01:08;;;;;;;2.80;1.00;;;;;;;19.75;100.00;99413.03;5027440;28;20272;-79
2022/07/04 07:03:37;;;;;;;2.90;0.90;;;;;;;19.99;100.00;99415.16;5028433;28;20206;-79
2022/07/04 07:06:05;;;;;;;3.27;1.10;;;;;;;19.92;100.00;99417.63;5027148;28;20281;-79
2022/07/04 07:08:34;;;;;;;2.73;1.00;;;;;;;19.60;100.00;99410.03;5028379;28;20664;-79
2022/07/04 07:11:12;;;;;;;3.07;1.07;;;;;;;19.93;100.00;99415.75;5029882;28;20212;-79
2022/07/04 07:13:44;;;;;;;2.07;0.97;;;;;;;20.07;100.00;99404.47;5028657;28;20204;-79
2022/07/04 07:16:13;;;;;;;2.47;0.90;;;;;;;20.25;100.00;99408.03;5029681;28;20202;-79
2022/07/04 07:18:42;;;;;;;2.43;0.93;;;;;;;20.29;99.51;99401.34;5035687;27;20208;-79
2022/07/04 07:21:10;;;;;;;2.17;1.10;;;;;;;20.43;96.56;99410.75;5032139;28;20668;-79
2022/07/04 07:23:40;;;;;;;1.93;0.80;;;;;;;20.28;88.53;99406.88;5026871;28;20667;-79
2022/07/04 07:26:10;;;;;;;3.53;1.10;;;;;;;20.59;92.90;99404.66;5029584;28;20213;-79
2022/07/04 07:28:38;;;;;;;1.63;0.70;;;;;;;20.61;92.99;99404.50;5029137;28;20358;-79
2022/07/04 07:31:08;;;;;;;5.47;1.00;;;;;;;20.52;92.48;99401.75;5029454;28;20210;-79
2022/07/04 07:33:36;;;;;;;2.67;1.10;;;;;;;20.49;92.83;99401.22;5028394;28;20198;-79
2022/07/04 07:36:05;;;;;;;2.73;0.70;;;;;;;20.63;91.68;99403.34;5028250;28;20190;-79
2022/07/04 07:38:33;;;;;;;2.30;0.90;;;;;;;20.64;91.76;99399.63;5111861;27;20198;-79
2022/07/04 07:41:02;;;;;;;2.30;0.83;;;;;;;20.75;91.36;99396.72;5025552;28;20190;-79
2022/07/04 07:43:30;;;;;;;2.20;0.77;;;;;;;20.66;82.42;99407.59;5029438;28;20209;-79
2022/07/04 07:45:58;;;;;;;3.23;0.80;;;;;;;20.76;81.88;99416.41;5029391;28;20190;-79
2022/07/04 07:48:28;;;;;;;0.80;0.80;;;;;;;20.63;81.15;99414.09;5029356;28;20242;-78
2022/07/04 07:50:56;;;;;;;2.00;0.80;;;;;;;20.73;79.26;99406.78;5029513;28;20305;-79
2022/07/04 07:53:26;;;;;;;0.90;0.63;;;;;;;20.74;77.53;99411.16;5021774;28;20201;-79
2022/07/04 07:55:54;;;;;;;1.63;0.70;;;;;;;20.92;77.03;99407.59;5032257;28;20201;-79
2022/07/04 07:58:22;;;;;;;2.83;0.70;;;;;;;20.86;81.67;99414.47;5028997;28;20613;-79
2022/07/04 08:00:50;;;;;;;0.93;0.60;;;;;;;20.85;80.78;99404.69;5029097;28;20281;-79
2022/07/04 08:06:12;;;;;;;1.07;0.70;;;;;;;20.96;76.75;99411.66;5029082;28;20197;-79
2022/07/04 08:08:41;;;;;;;1.50;0.60;;;;;;;20.86;73.30;99407.22;5034425;28;20202;-79
2022/07/04 08:11:09;;;;;;;2.80;0.80;;;;;;;21.01;68.76;99412.88;5029197;28;20230;-79
2022/07/04 08:13:38;;;;;;;1.17;0.73;;;;;;;21.14;67.99;99396.28;5028895;28;20194;-80
2022/07/04 08:16:07;;;;;;;2.13;0.67;;;;;;;21.24;66.16;99406.97;5031327;28;20652;-78
2022/07/04 08:18:36;;;;;;;1.75;0.70;;;;;;;21.39;67.74;99397.28;5032252;28;20280;-79
2022/07/04 08:21:05;;;;;;;1.83;0.80;;;;;;;21.46;70.34;99395.63;5035083;28;20235;-79
2022/07/04 08:23:42;;;;;;;1.25;0.80;;;;;;;21.51;71.19;99387.88;5032138;28;20224;-83
2022/07/04 08:26:30;;;;;;;1.63;0.83;;;;;;;21.52;69.96;99394.13;5033991;28;20202;-83
2022/07/04 08:28:59;;;;;;;3.25;0.93;;;;;;;21.57;69.83;99386.41;5034846;28;20222;-82
2022/07/04 08:31:28;;;;;;;2.90;0.77;;;;;;;21.56;67.55;99392.81;5037739;27;20214;-83
2022/07/04 08:34:17;;;;;;;1.10;0.70;;;;;;;21.80;68.71;99390.19;5033442;27;20206;-83
2022/07/04 08:36:46;;;;;;;2.17;0.90;;;;;;;21.90;70.16;99387.34;5032287;28;20226;-83
2022/07/04 08:39:16;;;;;;;3.07;1.00;;;;;;;21.92;70.96;99383.50;4994890;28;20201;-83
2022/07/04 08:41:45;;;;;;;2.43;0.90;;;;;;;22.01;66.96;99381.66;5030545;28;20209;-83
2022/07/04 08:44:14;;;;;;;1.27;0.70;;;;;;;21.78;69.24;99376.03;5028132;28;20208;-82
2022/07/04 08:46:43;;;;;;;3.33;1.07;;;;;;;21.85;69.09;99384.31;5033256;28;20205;-83
2022/07/04 08:49:16;;;;;;;2.38;0.90;;;;;;;21.35;69.57;99383.28;5031894;28;20234;-83
2022/07/04 08:51:54;;;;;;;2.27;0.90;;;;;;;21.82;62.78;99384.66;5046395;27;20305;-83
2022/07/04 09:00:14;;;;;;;0.90;0.68;;;;;;;22.31;64.49;99365.88;4992079;28;20195;-83
2022/07/04 09:02:42;;;;;;;4.00;0.90;;;;;;;22.63;65.58;99368.56;5028218;28;20201;-82
2022/07/04 09:05:11;;;;;;;3.33;1.10;;;;;;;22.74;63.57;99362.78;5024746;28;20201;-79
2022/07/04 09:07:39;;;;;;;2.08;1.00;;;;;;;22.71;61.53;99359.59;5028807;28;20210;-80
2022/07/04 09:10:10;;;;;;;3.70;0.95;;;;;;;22.68;60.08;99357.22;5032816;28;20225;-79
2022/07/04 09:12:38;;;;;;;2.45;0.98;;;;;;;22.95;58.79;99350.63;5034378;28;20198;-79
2022/07/04 09:15:26;;;;;;;2.60;0.85;;;;;;;23.12;54.50;99352.28;5031974;28;20206;-79
2022/07/04 09:17:55;;;;;;;1.15;0.70;;;;;;;23.15;55.47;99351.91;5037846;27;20213;-79
2022/07/04 09:20:24;;;;;;;1.45;0.75;;;;;;;22.85;57.92;99356.22;5039673;27;20202;-78
2022/07/04 09:22:53;;;;;;;3.50;0.93;;;;;;;22.89;58.65;99351.34;5028984;28;20186;-79
2022/07/04 09:25:24;;;;;;;2.58;0.82;;;;;;;23.18;58.74;99350.75;5031429;28;20202;-80
2022/07/04 09:27:55;;;;;;;2.78;0.90;;;;;;;23.31;59.31;99335.66;5028995;28;20205;-79
2022/07/04 09:30:25;;;;;;;2.58;0.82;;;;;;;23.47;56.58;99342.00;5031301;28;20230;-79
2022/07/04 09:32:59;;;;;;;6.15;1.08;;;;;;;23.53;56.73;99344.00;5027587;28;20198;-79
2022/07/04 09:35:31;;;;;;;3.33;0.80;;;;;;;23.69;54.85;99336.69;5029460;28;20209;-79
2022/07/04 09:38:01;;;;;;;2.10;0.75;;;;;;;23.63;53.34;99331.97;5029741;28;20213;-79
2022/07/04 09:40:33;;;;;;;4.75;0.90;;;;;;;23.79;54.63;99335.59;5031765;28;20202;-79
2022/07/04 09:43:11;;;;;;;1.90;1.00;;;;;;;23.84;54.60;99336.78;5031281;28;20197;-79
2022/07/04 09:45:55;;;;;;;2.60;1.20;;;;;;;24.09;56.87;99334.72;5031397;28;20216;-79
2022/07/04 09:48:23;;;;;;;2.50;0.90;;;;;;;24.45;57.14;99344.97;5030711;28;20217;-79
2022/07/04 09:50:52;;;;;;;1.95;1.00;;;;;;;23.79;53.37;99344.56;5029817;28;20218;-79
2022/07/04 09:53:28;;;;;;;1.95;0.80;;;;;;;24.07;52.19;99338.63;5029991;28;20194;-79
2022/07/04 09:55:58;;;;;;;1.02;0.80;;;;;;;24.18;52.74;99344.47;5028340;28;20329;-79
2022/07/04 09:58:26;;;;;;;2.90;1.10;;;;;;;24.11;55.66;99339.94;5028828;28;20209;-79
2022/07/04 10:01:00;;;;;;;1.08;0.70;;;;;;;24.35;50.19;99312.72;5030508;28;20208;-79
2022/07/04 10:03:32;;;;;;;1.77;0.70;;;;;;;24.38;47.76;99334.00;5030882;28;20209;-79
2022/07/04 10:06:05;;;;;;;0.90;0.60;;;;;;;24.47;47.02;99332.06;5030987;28;20670;-79
2022/07/04 10:08:34;;;;;;;1.42;0.60;;;;;;;24.52;45.67;99327.81;5033000;28;20297;-79
2022/07/04 10:11:05;;;;;;;1.23;0.60;;;;;;;24.30;44.29;99330.50;5030575;28;20226;-79
2022/07/04 10:13:36;;;;;;;1.25;0.70;;;;;;;23.77;43.03;99322.25;5067751;28;20204;-79
2022/07/04 10:16:07;;;;;;;0.77;0.52;;;;;;;24.52;43.31;99318.84;5071708;28;20200;-79
2022/07/04 10:18:36;;;;;;;0.93;0.75;;;;;;;24.49;41.45;99324.59;5064794;28;20199;-79
2022/07/04 10:21:04;;;;;;;0.50;0.43;;;;;;;25.11;40.10;99319.75;5065207;28;20196;-80
2022/07/04 10:23:36;;;;;;;0.85;0.50;;;;;;;25.27;38.47;99336.84;5067644;28;20204;-79
2022/07/04 10:26:06;;;;;;;0.98;0.68;;;;;;;24.93;38.82;99334.69;5068777;28;20189;-78
2022/07/04 10:28:35;;;;;;;0.82;0.60;;;;;;;24.30;38.97;99325.06;5071365;28;20203;-78
2022/07/04 10:31:04;;;;;;;4.93;3.53;;;;;;;24.72;38.27;99321.84;5056012;28;20225;-78
2022/07/04 10:33:33;;;;;;;2.40;0.50;;;;;;;25.43;36.76;99325.78;5028639;28;20290;-78
2022/07/04 10:36:04;;;;;;;0.50;0.50;;;;;;;25.60;36.92;99329.13;5030553;28;20192;-78
2022/07/04 10:38:34;;;;;;;0.82;0.45;;;;;;;25.79;33.90;99344.00;4986708;28;20198;-80
2022/07/04 10:41:07;;;;;;;0.63;0.50;;;;;;;25.69;33.48;99347.84;4986354;28;20280;-78
2022/07/04 10:44:06;;;;;;;1.20;0.63;;;;;;;25.99;34.57;99346.94;4988935;28;20696;-78
2022/07/04 10:46:56;;;;;;;1.25;0.45;;;;;;;26.25;34.65;99336.34;4990752;28;20249;-78
2022/07/04 10:49:27;;;;;;;1.08;0.52;;;;;;;25.69;35.60;99336.13;4986141;28;20215;-78
2022/07/04 10:52:02;;;;;;;1.17;0.52;;;;;;;26.12;36.73;99330.75;4987130;28;20219;-78
2022/07/04 10:54:32;;;;;;;1.38;0.80;;;;;;;26.28;35.84;99318.81;4987578;28;20292;-79
2022/07/04 10:57:11;;;;;;;1.20;0.57;;;;;;;26.60;34.70;99315.53;5070757;28;20190;-78
2022/07/04 10:59:41;;;;;;;2.55;0.60;;;;;;;26.63;35.67;99312.44;5027233;28;20279;-78
2022/07/04 11:02:24;;;;;;;0.80;0.52;;;;;;;26.46;34.94;99316.50;5030078;28;20754;-77
2022/07/04 11:05:00;;;;;;;1.90;0.68;;;;;;;26.71;35.30;99316.88;5030029;28;20217;-78
2022/07/04 11:07:58;;;;;;;2.08;0.90;;;;;;;26.35;35.55;99306.97;5028451;28;20265;-78
2022/07/04 11:10:27;;;;;;;1.65;0.60;;;;;;;27.45;34.26;99300.81;5028484;28;20267;-78
2022/07/04 11:13:17;;;;;;;1.42;0.70;;;;;;;26.55;36.99;99300.91;5029869;28;20330;-78
2022/07/04 11:15:59;;;;;;;0.70;0.60;;;;;;;27.15;36.58;99304.84;5027925;28;20277;-77
2022/07/04 11:18:29;;;;;;;0.90;0.55;;;;;;;26.84;36.25;99302.56;5029659;28;20190;-78
2022/07/04 11:20:58;;;;;;;1.38;0.90;;;;;;;27.12;37.10;99307.97;5029289;28;20228;-78
2022/07/04 11:23:26;;;;;;;0.80;0.70;;;;;;;25.56;38.70;99304.25;5028694;28;20194;-77
2022/07/04 11:25:56;;;;;;;1.25;0.70;;;;;;;26.79;37.33;99303.13;5030292;28;20229;-78
2022/07/04 11:28:28;;;;;;;1.48;0.73;;;;;;;25.88;39.44;99307.56;5029463;28;20194;-78
2022/07/04 11:31:12;;;;;;;2.22;0.70;;;;;;;26.63;38.23;99317.88;5029344;28;20221;-77
2022/07/04 11:33:41;;;;;;;0.80;0.70;;;;;;;25.39;40.59;99319.09;5020042;28;20206;-77
2022/07/04 11:36:11;;;;;;;2.72;0.90;;;;;;;24.85;41.87;99316.63;5027391;28;20280;-77
2022/07/04 11:38:50;;;;;;;1.73;1.45;;;;;;;25.23;42.60;99320.13;5028156;28;20194;-77
2022/07/04 11:47:06;;;;;;;1.42;0.80;;;;;;;26.36;42.44;99307.81;5029637;28;20198;-78
2022/07/04 11:49:35;;;;;;;1.17;0.70;;;;;;;27.02;40.71;99306.47;5029354;28;20678;-78
2022/07/04 11:52:04;;;;;;;1.88;0.80;;;;;;;27.55;37.89;99298.53;5033095;28;20710;-78
2022/07/04 11:54:32;;;;;;;0.80;0.77;;;;;;;27.17;38.01;99300.88;5028933;28;20688;-78
2022/07/04 11:57:20;;;;;;;0.98;0.80;;;;;;;28.42;35.01;99296.84;5031418;28;20205;-78
2022/07/04 12:00:01;;;;;;;2.60;0.93;;;;;;;28.71;34.75;99309.22;5032984;28;20204;-78
2022/07/04 12:02:30;;;;;;;1.92;0.90;;;;;;;28.88;33.17;99294.06;5033578;28;20201;-79
2022/07/04 12:04:59;;;;;;;3.10;0.73;;;;;;;28.46;36.33;99303.56;5040023;27;20225;-78